createdAt,value
2018-12-26T00:04:48.674Z,73.19
2018-12-26T00:07:17.181Z,73.21
2018-12-26T00:09:45.681Z,73.10
2018-12-26T00:12:14.220Z,72.87
2018-12-26T00:14:42.722Z,72.75
2018-12-26T00:17:11.229Z,72.85
2018-12-26T00:20:19.784Z,72.75
2018-12-26T00:22:48.288Z,72.61
2018-12-26T00:25:16.833Z,72.59
2018-12-26T00:27:47.082Z,72.61
2018-12-26T00:30:15.580Z,72.50
2018-12-26T00:35:38.095Z,72.25
2018-12-26T00:38:19.053Z,72.25
2018-12-26T00:40:47.559Z,72.29
2018-12-26T00:43:16.063Z,72.52
2018-12-26T00:45:44.601Z,72.76
2018-12-26T00:48:13.109Z,72.83
2018-12-26T00:50:41.610Z,72.78
2018-12-26T00:55:44.562Z,72.80
2018-12-26T00:58:13.064Z,72.82
2018-12-26T01:03:15.817Z,73.08
2018-12-26T01:08:18.359Z,73.34
2018-12-26T01:10:46.872Z,73.42
2018-12-26T01:13:15.427Z,73.34
2018-12-26T01:15:43.927Z,73.29
2018-12-26T01:18:24.299Z,73.21
2018-12-26T01:23:16.973Z,73.14
2018-12-26T01:25:45.472Z,73.03
2018-12-26T01:30:47.758Z,73.09
2018-12-26T01:33:16.255Z,73.14
2018-12-26T01:38:19.127Z,73.08
2018-12-26T01:40:47.631Z,73.16
2018-12-26T01:43:16.171Z,73.37
2018-12-26T01:45:44.675Z,73.53
2018-12-26T01:48:13.179Z,73.51
2018-12-26T01:53:15.927Z,73.32
2018-12-26T01:55:44.432Z,73.10
2018-12-26T02:00:46.567Z,72.92
2018-12-26T02:03:34.498Z,72.91
2018-12-26T02:06:02.995Z,72.97
2018-12-26T02:08:31.498Z,73.02
2018-12-26T02:11:00.012Z,72.94
2018-12-26T02:13:28.511Z,72.85
2018-12-26T02:15:57.009Z,72.71
2018-12-26T02:21:18.797Z,72.62
2018-12-26T02:23:47.332Z,72.54
2018-12-26T02:26:15.903Z,72.55
2018-12-26T02:28:44.411Z,72.59
2018-12-26T02:31:12.970Z,72.61
2018-12-26T02:33:41.473Z,72.63
2018-12-26T02:36:09.968Z,72.55
2018-12-26T02:38:38.499Z,72.48
2018-12-26T02:41:06.999Z,72.56
2018-12-26T02:43:35.501Z,72.67
2018-12-26T02:59:14.147Z,72.57
2018-12-26T03:04:17.335Z,72.48
2018-12-26T03:06:45.863Z,72.57
2018-12-26T03:09:14.370Z,72.62
2018-12-26T03:11:42.883Z,72.57
2018-12-26T03:17:04.617Z,72.71
2018-12-26T03:22:07.465Z,72.70
2018-12-26T03:27:10.465Z,72.61
2018-12-26T03:29:38.975Z,72.71
2018-12-26T03:34:41.448Z,72.76
2018-12-26T03:37:09.992Z,72.69
2018-12-26T03:39:38.491Z,72.63
2018-12-26T03:42:26.423Z,72.44
2018-12-26T03:45:34.859Z,72.24
2018-12-26T03:48:43.320Z,72.07
2018-12-26T03:51:11.826Z,72.11
2018-12-26T03:53:59.530Z,72.33
2018-12-26T03:56:28.040Z,72.55
2018-12-26T04:02:10.288Z,72.94
2018-12-26T04:05:18.720Z,72.99
2018-12-26T04:08:06.572Z,72.88
2018-12-26T04:10:35.073Z,72.82
2018-12-26T04:13:43.636Z,72.80
2018-12-26T04:16:52.072Z,72.74
2018-12-26T04:19:20.622Z,72.53
2018-12-26T04:27:31.648Z,72.97
2018-12-26T04:30:00.249Z,72.99
2018-12-26T04:32:28.772Z,72.92
2018-12-26T04:35:16.486Z,72.93
2018-12-26T04:40:18.753Z,72.73
2018-12-26T04:42:47.256Z,72.65
2018-12-26T04:45:15.790Z,72.60
2018-12-26T04:47:44.288Z,72.59
2018-12-26T04:50:12.794Z,72.64
2018-12-26T04:55:15.059Z,72.77
2018-12-26T05:00:17.796Z,72.65
2018-12-26T05:02:46.334Z,72.52
2018-12-26T05:07:49.083Z,72.38
2018-12-26T05:12:51.240Z,72.21
2018-12-26T05:15:19.799Z,72.11
2018-12-26T05:17:48.824Z,72.09
2018-12-26T05:20:18.503Z,72.11
2018-12-26T05:23:06.451Z,72.08
2018-12-26T05:25:34.947Z,72.06
2018-12-26T05:28:03.441Z,72.05
2018-12-26T05:30:31.962Z,72.08
2018-12-26T05:33:00.534Z,72.08
2018-12-26T05:35:29.034Z,72.10
2018-12-26T05:40:31.206Z,72.20
2018-12-26T05:45:33.601Z,72.24
2018-12-26T05:50:36.544Z,72.19
2018-12-26T05:55:39.456Z,72.29
2018-12-26T05:58:07.946Z,72.28
2018-12-26T06:03:09.985Z,72.14
2018-12-26T06:05:38.488Z,71.98
2018-12-26T06:08:46.941Z,71.83
2018-12-26T06:11:15.430Z,71.72
2018-12-26T06:13:43.926Z,71.58
2018-12-26T06:18:46.464Z,71.48
2018-12-26T06:23:48.717Z,71.45
2018-12-26T06:26:17.202Z,71.38
2018-12-26T06:31:20.186Z,71.38
2018-12-26T06:36:23.103Z,71.30
2018-12-26T06:41:25.268Z,71.14
2018-12-26T06:43:53.766Z,71.05
2018-12-26T06:49:14.944Z,70.90
2018-12-26T06:54:17.861Z,70.81
2018-12-26T06:56:46.357Z,70.76
2018-12-26T07:01:49.095Z,70.67
2018-12-26T07:04:17.663Z,70.58
2018-12-26T07:06:46.144Z,70.43
2018-12-26T07:09:14.642Z,70.42
2018-12-26T07:14:16.889Z,70.29
2018-12-26T07:16:45.385Z,70.21
2018-12-26T07:27:09.610Z,69.91
2018-12-26T07:29:38.163Z,69.85
2018-12-26T07:32:06.656Z,69.79
2018-12-26T07:34:42.189Z,69.71
2018-12-26T07:39:38.966Z,69.61
2018-12-26T07:42:07.464Z,69.60
2018-12-26T07:47:09.599Z,69.58
2018-12-26T07:49:38.169Z,69.56
2018-12-26T07:54:40.652Z,69.52
2018-12-26T07:57:09.179Z,69.49
2018-12-26T07:59:37.978Z,69.49
2018-12-26T08:02:07.931Z,69.52
2018-12-26T08:04:36.409Z,69.50
2018-12-26T08:07:04.907Z,69.49
2018-12-26T08:09:33.409Z,69.45
2018-12-26T08:14:35.619Z,69.27
2018-12-26T08:17:04.119Z,69.23
2018-12-26T08:22:06.954Z,68.81
2018-12-26T08:27:09.829Z,68.58
2018-12-26T08:29:38.360Z,68.56
2018-12-26T08:32:06.859Z,68.54
2018-12-26T08:34:37.504Z,68.53
2018-12-26T08:37:05.606Z,68.68
2018-12-26T08:39:34.097Z,68.97
2018-12-26T08:42:02.591Z,69.12
2018-12-26T08:47:05.506Z,69.49
2018-12-26T08:49:34.004Z,69.56
2018-12-26T08:54:36.981Z,69.89
2018-12-26T08:57:05.531Z,70.07
2018-12-26T08:59:34.035Z,70.16
2018-12-26T09:02:02.536Z,70.18
2018-12-26T09:07:05.684Z,69.97
2018-12-26T09:09:34.201Z,69.98
2018-12-26T09:12:16.918Z,70.10
2018-12-26T09:14:32.923Z,70.10
2018-12-26T09:19:35.477Z,70.24
2018-12-26T09:22:03.970Z,70.30
2018-12-26T09:27:46.194Z,70.30
2018-12-26T09:32:48.387Z,70.24
2018-12-26T09:35:16.891Z,70.25
2018-12-26T09:40:19.030Z,70.22
2018-12-26T09:42:47.520Z,70.15
2018-12-26T09:47:50.350Z,69.90
2018-12-26T09:52:52.449Z,70.22
2018-12-26T09:55:20.979Z,70.08
2018-12-26T09:57:49.479Z,70.14
2018-12-26T10:00:17.980Z,70.06
2018-12-26T10:02:46.524Z,70.03
2018-12-26T10:05:15.077Z,69.90
2018-12-26T10:07:43.531Z,70.13
2018-12-26T10:12:46.034Z,69.92
2018-12-26T10:15:14.830Z,69.82
2018-12-26T10:17:43.328Z,69.50
2018-12-26T10:20:11.828Z,69.10
2018-12-26T10:25:14.640Z,69.17
2018-12-26T10:30:17.074Z,68.89
2018-12-26T10:32:45.569Z,68.78
2018-12-26T10:35:33.474Z,68.45
2018-12-26T10:38:01.974Z,68.20
2018-12-26T10:43:17.990Z,67.98
2018-12-26T10:45:46.483Z,67.99
2018-12-26T10:48:14.981Z,67.86
2018-12-26T10:53:17.518Z,67.07
2018-12-26T10:55:46.126Z,67.12
2018-12-26T10:58:14.626Z,66.95
2018-12-26T11:00:43.122Z,66.85
2018-12-26T11:03:11.941Z,66.95
2018-12-26T11:05:40.508Z,66.86
2018-12-26T11:08:09.072Z,66.53
2018-12-26T11:10:37.622Z,66.37
2018-12-26T11:13:06.120Z,66.02
2018-12-26T11:15:34.614Z,65.68
2018-12-26T11:18:03.384Z,64.85
2018-12-26T11:20:32.016Z,64.03
2018-12-26T11:23:00.512Z,63.26
2018-12-26T11:25:29.106Z,62.70
2018-12-26T11:27:57.603Z,62.12
2018-12-26T11:30:26.094Z,61.71
2018-12-26T11:32:54.700Z,61.69
2018-12-26T11:35:23.269Z,61.38
2018-12-26T11:37:51.775Z,61.29
2018-12-26T11:40:20.491Z,61.24
2018-12-26T11:42:49.165Z,61.31
2018-12-26T11:45:17.663Z,61.33
2018-12-26T11:50:20.046Z,61.26
2018-12-26T11:52:48.653Z,61.31
2018-12-26T11:55:17.220Z,61.27
2018-12-26T11:57:45.709Z,61.21
2018-12-26T12:00:14.226Z,61.14
2018-12-26T12:02:44.471Z,61.05
2018-12-26T12:05:13.046Z,61.02
2018-12-26T12:10:16.078Z,60.79
2018-12-26T12:15:38.961Z,60.48
2018-12-26T12:18:07.517Z,60.56
2018-12-26T12:20:36.007Z,60.53
2018-12-26T12:25:38.899Z,60.48
2018-12-26T12:30:42.112Z,60.33
2018-12-26T12:36:03.629Z,60.32
2018-12-26T12:39:12.378Z,60.40
2018-12-26T12:41:40.871Z,60.36
2018-12-26T12:44:09.369Z,60.18
2018-12-26T12:46:57.221Z,59.88
2018-12-26T12:49:25.719Z,59.68
2018-12-26T12:51:54.213Z,59.25
2018-12-26T12:54:42.183Z,58.58
2018-12-26T12:57:10.681Z,58.47
2018-12-26T12:59:44.715Z,58.33
2018-12-26T13:04:43.415Z,57.29
2018-12-26T13:09:45.890Z,56.69
2018-12-26T13:12:33.708Z,56.43
2018-12-26T13:15:21.537Z,56.14
2018-12-26T13:22:59.067Z,56.51
2018-12-26T13:25:27.562Z,56.47
2018-12-26T13:27:56.094Z,56.14
2018-12-26T13:30:24.628Z,55.77
2018-12-26T13:32:53.126Z,55.60
2018-12-26T13:35:21.628Z,55.50
2018-12-26T13:40:24.474Z,55.38
2018-12-26T13:42:52.996Z,55.33
2018-12-26T13:45:21.490Z,55.31
2018-12-26T13:47:49.984Z,55.42
2018-12-26T13:52:59.912Z,55.15
2018-12-26T13:55:47.933Z,55.11
2018-12-26T13:58:28.527Z,54.79
2018-12-26T14:03:31.029Z,54.76
2018-12-26T14:05:59.558Z,54.64
2018-12-26T14:08:28.053Z,54.73
2018-12-26T14:10:56.550Z,54.90
2018-12-26T14:13:25.093Z,54.64
2018-12-26T14:15:53.588Z,54.33
2018-12-26T14:18:41.472Z,54.10
2018-12-26T14:21:49.914Z,54.13
2018-12-26T14:26:52.385Z,54.77
2018-12-26T14:29:20.931Z,55.03
2018-12-26T14:31:49.430Z,55.10
2018-12-26T14:34:17.925Z,55.12
2018-12-26T14:39:20.431Z,55.50
2018-12-26T14:41:48.958Z,55.90
2018-12-26T14:44:17.454Z,56.28
2018-12-26T14:46:45.948Z,56.46
2018-12-26T14:51:48.828Z,56.94
2018-12-26T14:54:36.824Z,57.28
2018-12-26T14:57:05.314Z,57.23
2018-12-26T14:59:46.477Z,57.29
2018-12-26T15:02:17.990Z,57.59
2018-12-26T15:04:46.480Z,58.00
2018-12-26T15:09:49.468Z,58.28
2018-12-26T15:12:17.958Z,58.74
2018-12-26T15:14:46.506Z,59.10
2018-12-26T15:17:15.006Z,59.25
2018-12-26T15:19:43.507Z,59.69
2018-12-26T15:24:46.053Z,60.34
2018-12-26T15:27:14.548Z,60.45
2018-12-26T15:32:16.919Z,60.93
2018-12-26T15:34:45.394Z,61.18
2018-12-26T15:39:48.289Z,61.46
2018-12-26T15:44:51.302Z,61.65
2018-12-26T15:47:19.829Z,61.75
2018-12-26T15:49:48.344Z,61.78
2018-12-26T15:52:36.159Z,61.88
2018-12-26T15:55:04.805Z,61.71
2018-12-26T15:57:33.306Z,61.83
2018-12-26T16:02:36.311Z,62.43
2018-12-26T16:05:44.845Z,62.90
2018-12-26T16:08:13.343Z,63.28
2018-12-26T16:10:41.847Z,63.15
2018-12-26T16:15:44.824Z,63.78
2018-12-26T16:18:13.526Z,64.11
2018-12-26T16:20:41.960Z,64.61
2018-12-26T16:23:10.466Z,64.78
2018-12-26T16:25:39.008Z,64.83
2018-12-26T16:28:07.507Z,64.80
2018-12-26T16:30:36.011Z,64.85
2018-12-26T16:33:04.539Z,65.14
2018-12-26T16:35:33.040Z,65.28
2018-12-26T16:38:01.999Z,65.36
2018-12-26T16:43:06.188Z,65.49
2018-12-26T16:45:34.730Z,65.49
2018-12-26T16:48:14.861Z,65.33
2018-12-26T16:50:33.458Z,65.46
2018-12-26T16:53:02.088Z,65.27
2018-12-26T16:55:30.587Z,65.31
2018-12-26T16:58:18.527Z,65.70
2018-12-26T17:00:54.804Z,65.83
2018-12-26T17:03:17.328Z,65.78
2018-12-26T17:08:20.348Z,65.73
2018-12-26T17:10:48.873Z,65.75
2018-12-26T17:13:17.378Z,65.76
2018-12-26T17:15:45.880Z,65.80
2018-12-26T17:20:48.064Z,65.93
2018-12-26T17:23:16.565Z,66.06
2018-12-26T17:28:19.335Z,66.27
2018-12-26T17:30:47.896Z,66.26
2018-12-26T17:33:16.397Z,66.27
2018-12-26T17:35:44.897Z,66.27
2018-12-26T17:38:13.499Z,66.21
2018-12-26T17:40:42.002Z,66.24
2018-12-26T17:43:10.499Z,66.31
2018-12-26T17:45:39.073Z,66.30
2018-12-26T17:48:07.578Z,66.30
2018-12-26T17:50:55.449Z,66.41
2018-12-26T17:54:03.911Z,66.30
2018-12-26T17:57:12.406Z,66.40
2018-12-26T18:00:20.911Z,66.35
2018-12-26T18:02:49.444Z,66.25
2018-12-26T18:05:30.626Z,66.56
2018-12-26T18:07:59.159Z,66.80
2018-12-26T18:10:27.673Z,66.97
2018-12-26T18:12:56.172Z,67.30
2018-12-26T18:15:24.798Z,67.39
2018-12-26T18:17:53.310Z,67.32
2018-12-26T18:20:21.812Z,67.36
2018-12-26T18:25:24.952Z,67.85
2018-12-26T18:27:53.600Z,67.87
2018-12-26T18:30:22.168Z,67.96
2018-12-26T18:32:50.683Z,68.10
2018-12-26T18:37:53.326Z,68.23
2018-12-26T18:42:55.676Z,68.33
2018-12-26T18:45:24.255Z,68.30
2018-12-26T18:47:52.802Z,68.32
2018-12-26T18:50:21.414Z,68.39
2018-12-26T18:52:49.911Z,68.42
2018-12-26T18:55:18.510Z,68.42
2018-12-26T18:57:47.015Z,68.59
2018-12-26T19:00:15.511Z,68.59
2018-12-26T19:05:18.053Z,68.69
2018-12-26T19:07:46.601Z,68.84
2018-12-26T19:10:17.413Z,68.93
2018-12-26T19:12:45.921Z,68.91
2018-12-26T19:17:48.626Z,68.87
2018-12-26T19:22:51.187Z,68.95
2018-12-26T19:25:19.748Z,68.96
2018-12-26T19:30:22.022Z,68.99
2018-12-26T19:32:50.562Z,68.97
2018-12-26T19:35:19.112Z,68.94
2018-12-26T19:37:47.615Z,68.87
2018-12-26T19:40:16.126Z,68.79
2018-12-26T19:45:19.096Z,68.90
2018-12-26T19:47:47.660Z,69.07
2018-12-26T19:50:16.239Z,69.16
2018-12-26T19:52:44.740Z,69.24
2018-12-26T19:58:07.579Z,68.95
2018-12-26T20:00:36.110Z,68.93
2018-12-26T20:03:04.684Z,68.97
2018-12-26T20:05:33.225Z,69.06
2018-12-26T20:08:01.726Z,69.05
2018-12-26T20:10:30.234Z,68.95
2018-12-26T20:15:33.236Z,69.03
2018-12-26T20:20:36.492Z,68.97
2018-12-26T20:25:38.740Z,69.09
2018-12-26T20:28:07.254Z,69.16
2018-12-26T20:33:09.358Z,69.36
2018-12-26T20:35:37.874Z,69.41
2018-12-26T20:38:06.566Z,69.25
2018-12-26T20:40:35.075Z,69.06
2018-12-26T20:43:03.664Z,68.81
2018-12-26T20:45:32.286Z,68.75
2018-12-26T20:48:00.789Z,68.99
2018-12-26T20:50:29.316Z,69.21
2018-12-26T20:55:32.374Z,69.36
2018-12-26T21:00:34.629Z,69.49
2018-12-26T21:03:03.124Z,69.47
2018-12-26T21:08:05.670Z,69.46
2018-12-26T21:10:34.170Z,69.44
2018-12-26T21:13:02.772Z,69.47
2018-12-26T21:15:31.276Z,69.28
2018-12-26T21:17:59.803Z,69.21
2018-12-26T21:23:02.326Z,69.40
2018-12-26T21:25:30.976Z,69.37
2018-12-26T21:27:59.490Z,69.41
2018-12-26T21:30:27.998Z,69.44
2018-12-26T21:32:56.610Z,69.23
2018-12-26T21:35:25.110Z,69.08
2018-12-26T21:37:53.614Z,69.05
2018-12-26T21:40:22.150Z,68.96
2018-12-26T21:42:50.648Z,68.92
2018-12-26T21:45:19.158Z,68.95
2018-12-26T21:47:47.692Z,68.90
2018-12-26T21:50:16.188Z,68.83
2018-12-26T21:52:44.698Z,68.73
2018-12-26T21:57:46.723Z,68.72
2018-12-26T22:00:15.234Z,68.63
2018-12-26T22:02:43.849Z,68.54
2018-12-26T22:05:12.362Z,68.53
2018-12-26T22:07:40.872Z,68.52
2018-12-26T22:12:43.629Z,68.90
2018-12-26T22:15:12.198Z,69.04
2018-12-26T22:17:40.699Z,69.06
2018-12-26T22:20:09.208Z,69.04
2018-12-26T22:22:37.818Z,68.82
2018-12-26T22:25:06.389Z,68.67
2018-12-26T22:27:34.924Z,68.53
2018-12-26T22:32:57.744Z,68.51
2018-12-26T22:35:26.415Z,68.33
2018-12-26T22:37:54.916Z,68.21
2018-12-26T22:40:23.678Z,68.31
2018-12-26T22:42:52.177Z,68.49
2018-12-26T22:45:20.679Z,68.60
2018-12-26T22:47:49.310Z,68.63
2018-12-26T22:50:17.822Z,68.66
2018-12-26T22:52:46.331Z,68.53
2018-12-26T22:55:15.117Z,68.54
2018-12-26T22:57:43.624Z,68.53
2018-12-26T23:05:35.907Z,68.77
2018-12-26T23:10:38.762Z,68.88
2018-12-26T23:13:07.391Z,68.96
2018-12-26T23:15:35.911Z,68.96
2018-12-26T23:18:04.419Z,68.99
2018-12-26T23:23:07.639Z,69.09
2018-12-26T23:25:36.270Z,69.12
2018-12-26T23:28:04.775Z,69.13
2018-12-26T23:30:33.281Z,69.17
2018-12-26T23:33:01.813Z,69.11
2018-12-26T23:35:30.320Z,69.08
2018-12-26T23:37:58.820Z,68.97
2018-12-26T23:43:01.455Z,68.96
2018-12-26T23:48:04.065Z,68.80
2018-12-26T23:53:06.583Z,68.94
2018-12-26T23:55:35.125Z,68.95
2018-12-26T23:58:03.634Z,68.85
